sensor_id;sensor_type;location;lat;lon;timestamp;P1;durP1;ratioP1;P2;durP2;ratioP2
43990;SDS011;29654;50.784;20.604;2023-07-31T00:03:39;2.00;;;1.90;;
43990;SDS011;29654;50.784;20.604;2023-07-31T00:08:43;2.42;;;2.20;;
43990;SDS011;29654;50.784;20.604;2023-07-31T00:13:46;2.67;;;1.98;;
43990;SDS011;29654;50.784;20.604;2023-07-31T00:18:48;2.35;;;2.15;;
43990;SDS011;29654;50.784;20.604;2023-07-31T00:23:52;2.35;;;2.15;;
43990;SDS011;29654;50.784;20.604;2023-07-31T00:28:55;2.53;;;2.03;;
43990;SDS011;29654;50.784;20.604;2023-07-31T00:33:57;3.33;;;2.00;;
43990;SDS011;29654;50.784;20.604;2023-07-31T00:39:02;1.90;;;1.70;;
43990;SDS011;29654;50.784;20.604;2023-07-31T00:44:04;3.92;;;2.25;;
43990;SDS011;29654;50.784;20.604;2023-07-31T00:49:07;1.80;;;1.70;;
43990;SDS011;29654;50.784;20.604;2023-07-31T00:54:13;1.70;;;1.60;;
43990;SDS011;29654;50.784;20.604;2023-07-31T00:59:16;1.85;;;1.75;;
43990;SDS011;29654;50.784;20.604;2023-07-31T01:04:19;2.35;;;2.17;;
43990;SDS011;29654;50.784;20.604;2023-07-31T01:09:26;3.42;;;2.22;;
43990;SDS011;29654;50.784;20.604;2023-07-31T01:14:37;2.60;;;2.28;;
43990;SDS011;29654;50.784;20.604;2023-07-31T01:19:39;2.20;;;2.03;;
43990;SDS011;29654;50.784;20.604;2023-07-31T01:24:48;2.55;;;2.28;;
43990;SDS011;29654;50.784;20.604;2023-07-31T01:30:03;1.70;;;1.60;;
43990;SDS011;29654;50.784;20.604;2023-07-31T01:35:15;3.67;;;2.10;;
43990;SDS011;29654;50.784;20.604;2023-07-31T01:40:17;2.25;;;2.05;;
43990;SDS011;29654;50.784;20.604;2023-07-31T01:45:21;1.70;;;1.60;;
43990;SDS011;29654;50.784;20.604;2023-07-31T01:50:24;2.90;;;1.90;;
43990;SDS011;29654;50.784;20.604;2023-07-31T01:55:26;1.92;;;1.67;;
43990;SDS011;29654;50.784;20.604;2023-07-31T02:00:30;3.00;;;2.58;;
43990;SDS011;29654;50.784;20.604;2023-07-31T02:05:34;4.00;;;2.25;;
43990;SDS011;29654;50.784;20.604;2023-07-31T02:10:36;2.40;;;2.15;;
43990;SDS011;29654;50.784;20.604;2023-07-31T02:15:40;3.15;;;2.22;;
43990;SDS011;29654;50.784;20.604;2023-07-31T02:20:43;2.83;;;2.45;;
43990;SDS011;29654;50.784;20.604;2023-07-31T02:25:51;2.63;;;2.33;;
43990;SDS011;29654;50.784;20.604;2023-07-31T02:30:55;3.28;;;2.75;;
43990;SDS011;29654;50.784;20.604;2023-07-31T02:35:58;2.97;;;2.67;;
43990;SDS011;29654;50.784;20.604;2023-07-31T02:41:00;3.83;;;2.97;;
43990;SDS011;29654;50.784;20.604;2023-07-31T02:46:04;3.53;;;2.75;;
43990;SDS011;29654;50.784;20.604;2023-07-31T02:51:07;2.80;;;2.47;;
43990;SDS011;29654;50.784;20.604;2023-07-31T02:56:09;2.97;;;2.65;;
43990;SDS011;29654;50.784;20.604;2023-07-31T03:01:13;2.47;;;2.28;;
43990;SDS011;29654;50.784;20.604;2023-07-31T03:06:17;2.75;;;2.55;;
43990;SDS011;29654;50.784;20.604;2023-07-31T03:11:19;5.28;;;2.33;;
43990;SDS011;29654;50.784;20.604;2023-07-31T03:16:23;2.88;;;2.65;;
43990;SDS011;29654;50.784;20.604;2023-07-31T03:21:26;2.95;;;2.35;;
43990;SDS011;29654;50.784;20.604;2023-07-31T03:26:30;2.60;;;2.40;;
43990;SDS011;29654;50.784;20.604;2023-07-31T03:31:35;2.75;;;2.55;;
43990;SDS011;29654;50.784;20.604;2023-07-31T03:36:37;3.13;;;2.38;;
43990;SDS011;29654;50.784;20.604;2023-07-31T03:41:40;3.55;;;2.45;;
43990;SDS011;29654;50.784;20.604;2023-07-31T03:46:44;3.97;;;2.53;;
43990;SDS011;29654;50.784;20.604;2023-07-31T03:51:47;2.88;;;2.67;;
43990;SDS011;29654;50.784;20.604;2023-07-31T03:56:49;2.63;;;2.42;;
43990;SDS011;29654;50.784;20.604;2023-07-31T04:01:53;2.60;;;2.40;;
43990;SDS011;29654;50.784;20.604;2023-07-31T04:06:56;2.75;;;2.55;;
43990;SDS011;29654;50.784;20.604;2023-07-31T04:11:58;3.58;;;2.88;;
43990;SDS011;29654;50.784;20.604;2023-07-31T04:17:02;3.20;;;2.50;;
43990;SDS011;29654;50.784;20.604;2023-07-31T04:22:05;2.95;;;2.53;;
43990;SDS011;29654;50.784;20.604;2023-07-31T04:27:07;2.30;;;2.10;;
43990;SDS011;29654;50.784;20.604;2023-07-31T04:32:11;3.03;;;2.28;;
43990;SDS011;29654;50.784;20.604;2023-07-31T04:37:15;3.72;;;2.38;;
43990;SDS011;29654;50.784;20.604;2023-07-31T04:42:18;2.60;;;2.40;;
43990;SDS011;29654;50.784;20.604;2023-07-31T04:47:22;3.25;;;2.30;;
43990;SDS011;29654;50.784;20.604;2023-07-31T04:52:24;2.35;;;2.15;;
43990;SDS011;29654;50.784;20.604;2023-07-31T04:57:27;2.60;;;2.40;;
43990;SDS011;29654;50.784;20.604;2023-07-31T05:02:31;3.35;;;2.78;;
43990;SDS011;29654;50.784;20.604;2023-07-31T05:07:33;3.72;;;2.70;;
43990;SDS011;29654;50.784;20.604;2023-07-31T05:12:37;3.10;;;2.47;;
43990;SDS011;29654;50.784;20.604;2023-07-31T05:17:41;4.70;;;2.80;;
43990;SDS011;29654;50.784;20.604;2023-07-31T05:22:43;4.50;;;3.03;;
43990;SDS011;29654;50.784;20.604;2023-07-31T05:27:46;7.65;;;3.22;;
43990;SDS011;29654;50.784;20.604;2023-07-31T05:32:50;5.22;;;2.90;;
43990;SDS011;29654;50.784;20.604;2023-07-31T05:37:52;3.00;;;2.50;;
43990;SDS011;29654;50.784;20.604;2023-07-31T05:42:55;3.90;;;2.53;;
43990;SDS011;29654;50.784;20.604;2023-07-31T05:47:59;3.20;;;2.65;;
43990;SDS011;29654;50.784;20.604;2023-07-31T05:53:01;2.80;;;2.60;;
43990;SDS011;29654;50.784;20.604;2023-07-31T05:58:04;6.97;;;2.55;;
43990;SDS011;29654;50.784;20.604;2023-07-31T06:03:07;2.75;;;2.10;;
43990;SDS011;29654;50.784;20.604;2023-07-31T06:08:10;2.65;;;2.40;;
43990;SDS011;29654;50.784;20.604;2023-07-31T06:13:13;4.50;;;2.75;;
43990;SDS011;29654;50.784;20.604;2023-07-31T06:18:16;3.55;;;2.67;;
43990;SDS011;29654;50.784;20.604;2023-07-31T06:23:19;2.65;;;2.45;;
43990;SDS011;29654;50.784;20.604;2023-07-31T06:28:23;2.83;;;2.63;;
43990;SDS011;29654;50.784;20.604;2023-07-31T06:33:31;2.55;;;2.28;;
43990;SDS011;29654;50.784;20.604;2023-07-31T06:38:34;2.97;;;2.75;;
43990;SDS011;29654;50.784;20.604;2023-07-31T06:43:38;3.40;;;3.10;;
43990;SDS011;29654;50.784;20.604;2023-07-31T06:48:42;4.57;;;3.42;;
43990;SDS011;29654;50.784;20.604;2023-07-31T06:53:44;3.28;;;2.83;;
43990;SDS011;29654;50.784;20.604;2023-07-31T06:58:47;3.20;;;2.80;;
43990;SDS011;29654;50.784;20.604;2023-07-31T07:03:51;3.50;;;3.20;;
43990;SDS011;29654;50.784;20.604;2023-07-31T07:08:53;5.13;;;3.30;;
43990;SDS011;29654;50.784;20.604;2023-07-31T07:13:56;3.38;;;3.08;;
43990;SDS011;29654;50.784;20.604;2023-07-31T07:19:00;3.10;;;2.83;;
43990;SDS011;29654;50.784;20.604;2023-07-31T07:24:03;4.40;;;3.08;;
43990;SDS011;29654;50.784;20.604;2023-07-31T07:29:06;2.55;;;2.25;;
43990;SDS011;29654;50.784;20.604;2023-07-31T07:34:10;3.65;;;3.38;;
43990;SDS011;29654;50.784;20.604;2023-07-31T07:39:12;2.42;;;2.22;;
43990;SDS011;29654;50.784;20.604;2023-07-31T07:44:15;2.00;;;1.90;;
43990;SDS011;29654;50.784;20.604;2023-07-31T07:49:19;2.13;;;1.95;;
43990;SDS011;29654;50.784;20.604;2023-07-31T07:54:22;2.85;;;2.38;;
43990;SDS011;29654;50.784;20.604;2023-07-31T07:59:25;2.50;;;2.30;;
43990;SDS011;29654;50.784;20.604;2023-07-31T08:04:29;2.30;;;1.75;;
43990;SDS011;29654;50.784;20.604;2023-07-31T08:09:32;2.60;;;2.40;;
43990;SDS011;29654;50.784;20.604;2023-07-31T08:14:34;3.40;;;2.42;;
43990;SDS011;29654;50.784;20.604;2023-07-31T08:19:38;2.90;;;2.53;;
43990;SDS011;29654;50.784;20.604;2023-07-31T08:24:41;3.33;;;3.03;;
43990;SDS011;29654;50.784;20.604;2023-07-31T08:29:43;2.25;;;2.05;;
43990;SDS011;29654;50.784;20.604;2023-07-31T08:34:47;3.53;;;2.45;;
43990;SDS011;29654;50.784;20.604;2023-07-31T08:39:50;2.45;;;2.25;;
43990;SDS011;29654;50.784;20.604;2023-07-31T08:44:54;8.55;;;2.67;;
43990;SDS011;29654;50.784;20.604;2023-07-31T08:49:59;2.42;;;2.08;;
43990;SDS011;29654;50.784;20.604;2023-07-31T08:55:04;3.90;;;2.33;;
43990;SDS011;29654;50.784;20.604;2023-07-31T09:00:09;3.03;;;2.28;;
43990;SDS011;29654;50.784;20.604;2023-07-31T09:05:14;2.53;;;2.33;;
43990;SDS011;29654;50.784;20.604;2023-07-31T09:10:18;2.38;;;2.17;;
43990;SDS011;29654;50.784;20.604;2023-07-31T09:15:21;2.47;;;2.28;;
43990;SDS011;29654;50.784;20.604;2023-07-31T09:20:26;2.58;;;2.38;;
43990;SDS011;29654;50.784;20.604;2023-07-31T09:25:29;3.38;;;2.42;;
43990;SDS011;29654;50.784;20.604;2023-07-31T09:30:32;2.65;;;2.45;;
43990;SDS011;29654;50.784;20.604;2023-07-31T09:35:49;2.35;;;2.15;;
43990;SDS011;29654;50.784;20.604;2023-07-31T09:40:52;2.08;;;1.95;;
43990;SDS011;29654;50.784;20.604;2023-07-31T09:45:55;3.00;;;2.30;;
43990;SDS011;29654;50.784;20.604;2023-07-31T09:51:00;2.10;;;1.95;;
43990;SDS011;29654;50.784;20.604;2023-07-31T09:56:06;2.33;;;2.00;;
43990;SDS011;29654;50.784;20.604;2023-07-31T10:01:09;2.42;;;1.98;;
43990;SDS011;29654;50.784;20.604;2023-07-31T10:06:13;3.03;;;1.73;;
43990;SDS011;29654;50.784;20.604;2023-07-31T10:11:19;3.10;;;1.73;;
43990;SDS011;29654;50.784;20.604;2023-07-31T10:16:23;2.30;;;1.60;;
43990;SDS011;29654;50.784;20.604;2023-07-31T10:21:27;2.42;;;1.52;;
43990;SDS011;29654;50.784;20.604;2023-07-31T10:26:31;3.47;;;1.92;;
43990;SDS011;29654;50.784;20.604;2023-07-31T10:31:34;1.95;;;1.60;;
43990;SDS011;29654;50.784;20.604;2023-07-31T10:36:39;2.75;;;1.75;;
43990;SDS011;29654;50.784;20.604;2023-07-31T10:41:41;1.95;;;1.48;;
43990;SDS011;29654;50.784;20.604;2023-07-31T10:46:45;1.75;;;1.52;;
43990;SDS011;29654;50.784;20.604;2023-07-31T10:51:49;4.57;;;1.58;;
43990;SDS011;29654;50.784;20.604;2023-07-31T10:56:51;1.80;;;1.48;;
43990;SDS011;29654;50.784;20.604;2023-07-31T11:01:54;3.03;;;1.45;;
43990;SDS011;29654;50.784;20.604;2023-07-31T11:07:00;2.33;;;1.73;;
43990;SDS011;29654;50.784;20.604;2023-07-31T11:12:06;3.10;;;1.70;;
43990;SDS011;29654;50.784;20.604;2023-07-31T11:17:10;1.65;;;1.40;;
43990;SDS011;29654;50.784;20.604;2023-07-31T11:22:14;1.88;;;1.40;;
43990;SDS011;29654;50.784;20.604;2023-07-31T11:27:16;1.55;;;1.10;;
43990;SDS011;29654;50.784;20.604;2023-07-31T11:32:19;1.10;;;1.00;;
43990;SDS011;29654;50.784;20.604;2023-07-31T11:37:24;1.10;;;0.90;;
43990;SDS011;29654;50.784;20.604;2023-07-31T11:42:40;1.77;;;1.15;;
43990;SDS011;29654;50.784;20.604;2023-07-31T11:47:43;1.67;;;1.58;;
43990;SDS011;29654;50.784;20.604;2023-07-31T11:52:47;3.40;;;2.88;;
43990;SDS011;29654;50.784;20.604;2023-07-31T11:57:52;4.15;;;3.72;;
43990;SDS011;29654;50.784;20.604;2023-07-31T12:02:58;5.78;;;2.85;;
43990;SDS011;29654;50.784;20.604;2023-07-31T12:08:03;1.75;;;1.52;;
43990;SDS011;29654;50.784;20.604;2023-07-31T12:13:19;2.22;;;1.30;;
43990;SDS011;29654;50.784;20.604;2023-07-31T12:18:24;3.30;;;1.20;;
43990;SDS011;29654;50.784;20.604;2023-07-31T12:23:30;1.70;;;1.10;;
43990;SDS011;29654;50.784;20.604;2023-07-31T12:28:36;1.85;;;0.82;;
43990;SDS011;29654;50.784;20.604;2023-07-31T12:33:41;1.25;;;1.00;;
43990;SDS011;29654;50.784;20.604;2023-07-31T12:38:46;1.10;;;0.90;;
43990;SDS011;29654;50.784;20.604;2023-07-31T12:43:49;2.72;;;0.77;;
43990;SDS011;29654;50.784;20.604;2023-07-31T12:48:52;1.27;;;1.15;;
43990;SDS011;29654;50.784;20.604;2023-07-31T12:53:56;2.88;;;1.23;;
43990;SDS011;29654;50.784;20.604;2023-07-31T12:58:58;1.65;;;1.15;;
43990;SDS011;29654;50.784;20.604;2023-07-31T13:04:01;1.25;;;1.10;;
43990;SDS011;29654;50.784;20.604;2023-07-31T13:09:05;1.30;;;1.20;;
43990;SDS011;29654;50.784;20.604;2023-07-31T13:14:07;1.17;;;1.08;;
43990;SDS011;29654;50.784;20.604;2023-07-31T13:19:11;1.92;;;1.00;;
43990;SDS011;29654;50.784;20.604;2023-07-31T13:24:15;1.98;;;1.17;;
43990;SDS011;29654;50.784;20.604;2023-07-31T13:29:17;2.15;;;1.42;;
43990;SDS011;29654;50.784;20.604;2023-07-31T13:34:20;1.05;;;1.02;;
43990;SDS011;29654;50.784;20.604;2023-07-31T13:39:24;1.92;;;1.35;;
43990;SDS011;29654;50.784;20.604;2023-07-31T13:44:27;2.17;;;1.27;;
43990;SDS011;29654;50.784;20.604;2023-07-31T13:49:29;1.00;;;0.85;;
43990;SDS011;29654;50.784;20.604;2023-07-31T13:54:33;1.73;;;1.25;;
43990;SDS011;29654;50.784;20.604;2023-07-31T13:59:36;1.83;;;1.23;;
43990;SDS011;29654;50.784;20.604;2023-07-31T14:04:39;1.70;;;1.23;;
43990;SDS011;29654;50.784;20.604;2023-07-31T14:09:43;1.20;;;1.08;;
43990;SDS011;29654;50.784;20.604;2023-07-31T14:14:45;1.33;;;1.17;;
43990;SDS011;29654;50.784;20.604;2023-07-31T14:19:48;1.92;;;0.88;;
43990;SDS011;29654;50.784;20.604;2023-07-31T14:24:52;1.27;;;1.17;;
43990;SDS011;29654;50.784;20.604;2023-07-31T14:29:54;1.55;;;1.33;;
43990;SDS011;29654;50.784;20.604;2023-07-31T14:34:57;1.60;;;1.15;;
43990;SDS011;29654;50.784;20.604;2023-07-31T14:40:01;2.22;;;1.30;;
43990;SDS011;29654;50.784;20.604;2023-07-31T14:45:05;1.70;;;1.15;;
43990;SDS011;29654;50.784;20.604;2023-07-31T14:50:10;1.77;;;1.08;;
43990;SDS011;29654;50.784;20.604;2023-07-31T14:55:14;1.15;;;1.05;;
43990;SDS011;29654;50.784;20.604;2023-07-31T15:00:17;3.05;;;1.20;;
43990;SDS011;29654;50.784;20.604;2023-07-31T15:05:20;1.73;;;1.13;;
43990;SDS011;29654;50.784;20.604;2023-07-31T15:10:24;1.77;;;1.00;;
43990;SDS011;29654;50.784;20.604;2023-07-31T15:15:26;1.10;;;1.00;;
43990;SDS011;29654;50.784;20.604;2023-07-31T15:20:29;0.90;;;0.90;;
43990;SDS011;29654;50.784;20.604;2023-07-31T15:25:34;1.40;;;1.00;;
43990;SDS011;29654;50.784;20.604;2023-07-31T15:30:36;2.17;;;1.10;;
43990;SDS011;29654;50.784;20.604;2023-07-31T15:35:39;2.50;;;1.02;;
43990;SDS011;29654;50.784;20.604;2023-07-31T15:40:44;1.40;;;1.00;;
43990;SDS011;29654;50.784;20.604;2023-07-31T15:45:47;1.20;;;1.02;;
43990;SDS011;29654;50.784;20.604;2023-07-31T15:50:49;1.77;;;1.30;;
43990;SDS011;29654;50.784;20.604;2023-07-31T15:55:53;1.08;;;0.98;;
43990;SDS011;29654;50.784;20.604;2023-07-31T16:00:56;2.75;;;1.10;;
43990;SDS011;29654;50.784;20.604;2023-07-31T16:05:59;1.48;;;0.98;;
43990;SDS011;29654;50.784;20.604;2023-07-31T16:11:03;2.10;;;1.25;;
43990;SDS011;29654;50.784;20.604;2023-07-31T16:16:06;2.30;;;1.27;;
43990;SDS011;29654;50.784;20.604;2023-07-31T16:21:08;1.40;;;1.08;;
43990;SDS011;29654;50.784;20.604;2023-07-31T16:26:12;5.05;;;1.45;;
43990;SDS011;29654;50.784;20.604;2023-07-31T16:31:15;1.75;;;1.15;;
43990;SDS011;29654;50.784;20.604;2023-07-31T16:36:17;2.72;;;1.35;;
43990;SDS011;29654;50.784;20.604;2023-07-31T16:41:23;1.77;;;1.05;;
43990;SDS011;29654;50.784;20.604;2023-07-31T16:46:26;1.75;;;1.52;;
43990;SDS011;29654;50.784;20.604;2023-07-31T16:51:30;2.25;;;1.30;;
43990;SDS011;29654;50.784;20.604;2023-07-31T16:56:34;1.58;;;1.38;;
43990;SDS011;29654;50.784;20.604;2023-07-31T17:01:37;2.55;;;1.55;;
43990;SDS011;29654;50.784;20.604;2023-07-31T17:06:39;1.50;;;1.40;;
43990;SDS011;29654;50.784;20.604;2023-07-31T17:11:43;2.50;;;1.48;;
43990;SDS011;29654;50.784;20.604;2023-07-31T17:16:46;2.15;;;1.02;;
43990;SDS011;29654;50.784;20.604;2023-07-31T17:21:48;2.10;;;1.60;;
43990;SDS011;29654;50.784;20.604;2023-07-31T17:26:52;3.00;;;1.27;;
43990;SDS011;29654;50.784;20.604;2023-07-31T17:31:55;2.40;;;1.25;;
43990;SDS011;29654;50.784;20.604;2023-07-31T17:36:57;3.08;;;1.20;;
43990;SDS011;29654;50.784;20.604;2023-07-31T17:42:01;2.50;;;1.70;;
43990;SDS011;29654;50.784;20.604;2023-07-31T17:47:05;1.45;;;1.30;;
43990;SDS011;29654;50.784;20.604;2023-07-31T17:52:07;1.40;;;1.30;;
43990;SDS011;29654;50.784;20.604;2023-07-31T17:57:11;2.00;;;1.60;;
43990;SDS011;29654;50.784;20.604;2023-07-31T18:02:14;1.73;;;1.17;;
43990;SDS011;29654;50.784;20.604;2023-07-31T18:07:16;2.63;;;1.23;;
43990;SDS011;29654;50.784;20.604;2023-07-31T18:12:20;2.40;;;1.05;;
43990;SDS011;29654;50.784;20.604;2023-07-31T18:17:23;1.33;;;1.20;;
43990;SDS011;29654;50.784;20.604;2023-07-31T18:22:26;2.13;;;1.15;;
43990;SDS011;29654;50.784;20.604;2023-07-31T18:27:30;1.30;;;1.17;;
43990;SDS011;29654;50.784;20.604;2023-07-31T18:32:32;2.13;;;1.55;;
43990;SDS011;29654;50.784;20.604;2023-07-31T18:37:35;3.22;;;1.65;;
43990;SDS011;29654;50.784;20.604;2023-07-31T18:42:39;3.38;;;1.70;;
43990;SDS011;29654;50.784;20.604;2023-07-31T18:47:41;1.65;;;1.55;;
43990;SDS011;29654;50.784;20.604;2023-07-31T18:52:44;2.85;;;1.90;;
43990;SDS011;29654;50.784;20.604;2023-07-31T18:57:48;1.70;;;1.58;;
43990;SDS011;29654;50.784;20.604;2023-07-31T19:02:51;2.17;;;1.70;;
43990;SDS011;29654;50.784;20.604;2023-07-31T19:07:53;1.58;;;1.48;;
43990;SDS011;29654;50.784;20.604;2023-07-31T19:13:01;2.10;;;1.60;;
43990;SDS011;29654;50.784;20.604;2023-07-31T19:18:05;2.55;;;1.70;;
43990;SDS011;29654;50.784;20.604;2023-07-31T19:23:08;3.58;;;1.58;;
43990;SDS011;29654;50.784;20.604;2023-07-31T19:28:12;3.15;;;1.70;;
43990;SDS011;29654;50.784;20.604;2023-07-31T19:33:14;2.08;;;1.70;;
43990;SDS011;29654;50.784;20.604;2023-07-31T19:38:18;3.30;;;1.90;;
43990;SDS011;29654;50.784;20.604;2023-07-31T19:43:22;3.17;;;1.88;;
43990;SDS011;29654;50.784;20.604;2023-07-31T19:48:25;1.85;;;1.58;;
43990;SDS011;29654;50.784;20.604;2023-07-31T19:53:28;4.20;;;2.20;;
43990;SDS011;29654;50.784;20.604;2023-07-31T19:58:32;8.45;;;2.42;;
43990;SDS011;29654;50.784;20.604;2023-07-31T20:03:34;5.13;;;2.72;;
43990;SDS011;29654;50.784;20.604;2023-07-31T20:08:37;5.95;;;3.35;;
43990;SDS011;29654;50.784;20.604;2023-07-31T20:13:41;4.78;;;3.08;;
43990;SDS011;29654;50.784;20.604;2023-07-31T20:18:44;5.75;;;2.90;;
43990;SDS011;29654;50.784;20.604;2023-07-31T20:23:46;2.75;;;2.53;;
43990;SDS011;29654;50.784;20.604;2023-07-31T20:28:50;4.35;;;2.92;;
43990;SDS011;29654;50.784;20.604;2023-07-31T20:33:53;5.80;;;3.30;;
43990;SDS011;29654;50.784;20.604;2023-07-31T20:38:55;7.28;;;3.70;;
43990;SDS011;29654;50.784;20.604;2023-07-31T20:43:59;3.22;;;2.92;;
43990;SDS011;29654;50.784;20.604;2023-07-31T20:49:02;2.92;;;2.63;;
43990;SDS011;29654;50.784;20.604;2023-07-31T20:54:05;5.32;;;2.83;;
43990;SDS011;29654;50.784;20.604;2023-07-31T20:59:09;3.40;;;2.80;;
43990;SDS011;29654;50.784;20.604;2023-07-31T21:04:11;3.53;;;2.95;;
43990;SDS011;29654;50.784;20.604;2023-07-31T21:09:14;4.65;;;3.67;;
43990;SDS011;29654;50.784;20.604;2023-07-31T21:14:18;5.68;;;3.25;;
43990;SDS011;29654;50.784;20.604;2023-07-31T21:19:21;5.25;;;3.00;;
43990;SDS011;29654;50.784;20.604;2023-07-31T21:24:23;4.85;;;3.33;;
43990;SDS011;29654;50.784;20.604;2023-07-31T21:29:27;5.55;;;3.35;;
43990;SDS011;29654;50.784;20.604;2023-07-31T21:34:30;4.88;;;3.47;;
43990;SDS011;29654;50.784;20.604;2023-07-31T21:39:32;7.22;;;4.70;;
43990;SDS011;29654;50.784;20.604;2023-07-31T21:44:36;8.13;;;4.30;;
43990;SDS011;29654;50.784;20.604;2023-07-31T21:49:39;7.07;;;4.50;;
43990;SDS011;29654;50.784;20.604;2023-07-31T21:54:42;6.35;;;4.88;;
43990;SDS011;29654;50.784;20.604;2023-07-31T21:59:46;4.20;;;3.80;;
43990;SDS011;29654;50.784;20.604;2023-07-31T22:04:49;5.18;;;3.72;;
43990;SDS011;29654;50.784;20.604;2023-07-31T22:09:52;5.40;;;3.67;;
43990;SDS011;29654;50.784;20.604;2023-07-31T22:14:56;4.95;;;3.72;;
43990;SDS011;29654;50.784;20.604;2023-07-31T22:19:58;4.13;;;3.72;;
43990;SDS011;29654;50.784;20.604;2023-07-31T22:25:01;6.65;;;4.30;;
43990;SDS011;29654;50.784;20.604;2023-07-31T22:30:05;5.07;;;4.20;;
43990;SDS011;29654;50.784;20.604;2023-07-31T22:35:09;4.68;;;3.88;;
43990;SDS011;29654;50.784;20.604;2023-07-31T22:40:11;4.50;;;4.05;;
43990;SDS011;29654;50.784;20.604;2023-07-31T22:45:17;6.40;;;3.40;;
43990;SDS011;29654;50.784;20.604;2023-07-31T22:50:19;5.28;;;4.10;;
43990;SDS011;29654;50.784;20.604;2023-07-31T22:55:22;6.13;;;3.95;;
43990;SDS011;29654;50.784;20.604;2023-07-31T23:00:26;5.53;;;3.92;;
43990;SDS011;29654;50.784;20.604;2023-07-31T23:05:29;4.30;;;3.42;;
43990;SDS011;29654;50.784;20.604;2023-07-31T23:10:32;5.30;;;4.28;;
43990;SDS011;29654;50.784;20.604;2023-07-31T23:15:38;4.15;;;3.72;;
43990;SDS011;29654;50.784;20.604;2023-07-31T23:20:41;5.72;;;3.90;;
43990;SDS011;29654;50.784;20.604;2023-07-31T23:25:50;5.53;;;3.30;;
43990;SDS011;29654;50.784;20.604;2023-07-31T23:31:00;5.05;;;3.97;;
43990;SDS011;29654;50.784;20.604;2023-07-31T23:36:07;3.97;;;3.35;;
43990;SDS011;29654;50.784;20.604;2023-07-31T23:41:11;4.50;;;3.65;;
43990;SDS011;29654;50.784;20.604;2023-07-31T23:46:15;4.78;;;3.70;;
43990;SDS011;29654;50.784;20.604;2023-07-31T23:51:18;3.80;;;3.38;;
43990;SDS011;29654;50.784;20.604;2023-07-31T23:56:20;5.47;;;3.70;;
